Zum Inhalt springen

Flugplatzwetter

EDAZ 200427Z AUTO 31002KT 0100 R25/<550 FG VV001 04/03 Q1016 RMK TL60 WND2/32001KT R1/<550N=

4-Tage Wetter

Sonnenauf- und untergangszeiten

Im Folgenden finden Sie eine Übersicht der Sonnenauf- und untergangszeiten der nächsten 14 Tage.

Alle Zeiten local.

Datum Sonnenaufgang
19.04.2021 05:58 20:13
20.04.2021 05:56 20:15
21.04.2021 05:54 20:17
22.04.2021 05:52 20:18
23.04.2021 05:50 20:20
24.04.2021 05:48 20:22
25.04.2021 05:46 20:24
26.04.2021 05:44 20:25
27.04.2021 05:42 20:27
28.04.2021 05:40 20:29
29.04.2021 05:38 20:30
30.04.2021 05:36 20:32
01.05.2021 05:34 20:34
02.05.2021 05:32 20:36
03.05.2021 05:30 20:37
04.05.2021 05:28 20:39